Duckwater, Nevada Weather observations

Data are for 10 minute period ending at time listed.
 Day   Time   Solar   Ave.   Ave.  Ave.  Vector  Max.   Baro.   Total    
  of    of     Rad.   Air    Rel.  Wind   Wind   Wind  Press.  Precip.   
Year   Day            Temp.  Hum.  Speed  Dir.   Gust                    
2015   (PST)   w/m2    F      %     mph   deg.    mph    mb.     in.    
-----------------------------------------------------------------------
 211    0:00      0   67.0    17    6.4    33    11.4   839.2   0.00  
 211    0:10      0   67.7    17    7.4     8    12.3   839.2   0.00  
 211    0:20      0   67.8    17    8.5   354    12.6   839.2   0.00  
 211    0:30      0   67.2    18    8.7   360    13.8   839.1   0.00  
 211    0:40      0   66.8    18    7.6   358    11.9   839.2   0.00  
 211    0:50      0   65.9    18    6.3   349     9.9   839.3   0.00  
 211    1:00      0   63.7    20    2.9   293     6.9   839.3   0.00  
 211    1:10      0   62.0    22    2.6    96     7.5   839.4   0.00  
 211    1:20      0   63.8    20    4.3    15    10.0   839.3   0.00  
 211    1:30      0   64.2    20    4.2   345     8.0   839.3   0.00  
 211    1:40      0   63.7    21    3.7   312     8.6   839.5   0.00  
 211    1:50      0   63.6    21    3.9   311     7.1   839.5   0.00  
 211    2:00      0   62.1    23    3.3   278     5.4   839.5   0.00  
 211    2:10      0   61.0    24    1.9   238     3.6   839.5   0.00  
 211    2:20      0   60.9    24    2.4   285     4.7   839.6   0.00  
 211    2:30      0   60.9    24    1.6   284     4.3   839.6   0.00  
 211    2:40      0   59.3    26    4.0   258     6.8   839.7   0.00  
 211    2:50      0   60.4    24    4.8   296     7.5   839.7   0.00  
 211    3:00      0   57.6    28    4.9   294     7.6   839.7   0.00  
 211    3:10      0   56.1    28    3.4   276     5.8   839.8   0.00  
 211    3:20      0   57.0    27    3.1   319     5.8   839.8   0.00  
 211    3:30      0   57.7    26    4.0   332     7.5   839.8   0.00  
 211    3:40      0   58.5    25    4.8   337     8.4   839.8   0.00  
 211    3:50      0   59.0    24    6.2   340     9.7   839.8   0.00  
 211    4:00      0   60.4    23    7.9   342    12.3   839.9   0.00  
 211    4:10      0   59.5    24    6.3   330    10.1   839.9   0.00  
 211    4:20      0   59.0    24    4.8   330     7.9   840.1   0.00  
 211    4:30      0   59.8    24    4.0   325     7.1   840.2   0.00  
 211    4:40      3   60.0    24    4.7   321     9.0   840.3   0.00  
 211    4:50      4   59.6    24    4.7   319    10.2   840.4   0.00  
 211    5:00      7   57.7    27    3.7   296     6.9   840.4   0.00  
 211    5:10     27   58.4    26    3.5   300     6.2   840.5   0.00  
 211    5:20     51   59.5    25    3.8   320     6.9   840.6   0.00  
 211    5:30     67   58.3    28    2.7   271     5.0   840.7   0.00  
 211    5:40     73   57.1    30    3.4   258     5.4   840.8   0.00  
 211    5:50     92   57.0    31    3.8   262     5.2   840.9   0.00  
 211    6:00    183   58.9    30    4.0   247     5.1   841.1   0.00  
 211    6:10    221   61.7    28    3.0   273     4.7   841.2   0.00  
 211    6:20    253   65.9    22    4.6   325     7.7   841.3   0.00  
 211    6:30    290   68.0    21    4.7   339     7.9   841.3   0.00  
 211    6:40    331   69.9    20    4.6   338     8.4   841.4   0.00  
 211    6:50    366   71.5    19    5.1   336     9.1   841.3   0.00  
 211    7:00    394   73.0    18    5.3   335     8.6   841.4   0.00  
 211    7:10    426   74.0    17    5.7   346     9.3   841.4   0.00  
 211    7:20    459   75.1    17    6.2   344    10.1   841.4   0.00  
 211    7:30    492   76.0    16    5.7   349     9.1   841.5   0.00  
 211    7:40    524   77.3    16    4.6   348     7.4   841.5   0.00  
 211    7:50    557   78.9    15    4.5   358     7.5   841.4   0.00  
 211    8:00    588   79.8    14    5.0   357     7.9   841.4   0.00  

Return to Duckwater graphs page.


Western Regional Climate Center,wrcc@dri.edu